« Back
NWS Peachtree City, Ga » Text Product » MCN Terminal Aerodrome Forecast

Printer-friendly Version
Current Version              Previous Versions:   1  2  3  4  5  6  7  8  9  

Terminal Aerodrome Forecast

FTUS42 KFFC 280520
KMCN 280520Z 2806/2906 VRB03KT P6SM SCT250
      TEMPO 2806/2809 5SM BR
     FM280900 00000KT 4SM BR SCT015 SCT250
     FM281400 09003KT P6SM SCT025 SCT200
     FM281800 18003KT P6SM FEW040 SCT150
     FM290000 00000KT P6SM SCT150 BKN200=

USA.gov is the U.S. government's official web portal to all federal, state and local government web resources and services.